createdAt,value
2022-08-03T00:00:26.636Z,98012.31
2022-08-03T00:03:43.737Z,98005.41
2022-08-03T00:06:54.216Z,98016.59
2022-08-03T00:09:59.819Z,98022.13
2022-08-03T00:13:11.683Z,98024.75
2022-08-03T00:16:15.426Z,98020.78
2022-08-03T00:19:22.782Z,98025.78
2022-08-03T00:22:26.682Z,98023.75
2022-08-03T00:25:36.437Z,98018.97
2022-08-03T00:28:42.282Z,98021.75
2022-08-03T00:31:52.411Z,98020.69
2022-08-03T00:35:18.036Z,98019.22
2022-08-03T00:38:38.454Z,98016.25
2022-08-03T00:41:45.455Z,98021.38
2022-08-03T00:44:50.803Z,98030.25
2022-08-03T00:47:55.921Z,98022.94
2022-08-03T00:51:00.583Z,98023.41
2022-08-03T00:54:05.907Z,98018.75
2022-08-03T00:57:15.570Z,98016.88
2022-08-03T01:00:22.749Z,98019.31
2022-08-03T01:03:30.355Z,98021.03
2022-08-03T01:06:44.838Z,98026.53
2022-08-03T01:10:01.323Z,98034.06
2022-08-03T01:14:03.400Z,98024.28
2022-08-03T01:17:00.369Z,98029.16
2022-08-03T01:20:11.089Z,98023.53
2022-08-03T01:23:42.575Z,98032.63
2022-08-03T01:27:09.021Z,98026.16
2022-08-03T01:30:20.028Z,98018.28
2022-08-03T01:33:29.743Z,98014.00
2022-08-03T01:36:39.874Z,98017.78
2022-08-03T01:39:45.976Z,98022.88
2022-08-03T01:42:53.972Z,98017.84
2022-08-03T01:46:00.903Z,98026.78
2022-08-03T01:49:09.690Z,98028.66
2022-08-03T01:52:19.315Z,98014.75
2022-08-03T01:55:28.347Z,98013.88
2022-08-03T01:58:35.411Z,98008.06
2022-08-03T02:02:28.794Z,98009.28
2022-08-03T02:05:12.580Z,98002.97
2022-08-03T02:08:20.067Z,98011.16
2022-08-03T02:11:24.410Z,98014.84
2022-08-03T02:14:30.191Z,98012.31
2022-08-03T02:17:38.581Z,98010.75
2022-08-03T02:20:46.038Z,98003.81
2022-08-03T02:23:50.116Z,97994.66
2022-08-03T02:26:57.578Z,98002.09
2022-08-03T02:30:07.330Z,98002.03
2022-08-03T02:33:23.787Z,97999.75
2022-08-03T02:36:31.860Z,97994.88
2022-08-03T02:39:38.235Z,97995.13
2022-08-03T02:42:47.087Z,97999.19
2022-08-03T02:45:54.539Z,98006.94
2022-08-03T02:49:40.779Z,97988.94
2022-08-03T02:52:31.620Z,97997.69
2022-08-03T02:55:43.257Z,97995.13
2022-08-03T02:58:54.658Z,97998.41
2022-08-03T03:02:00.385Z,97999.47
2022-08-03T03:05:52.448Z,97999.44
2022-08-03T03:08:36.930Z,97997.94
2022-08-03T03:11:44.806Z,97992.53
2022-08-03T03:14:50.967Z,97998.75
2022-08-03T03:17:58.270Z,98002.84
2022-08-03T03:21:06.862Z,98001.34
2022-08-03T03:24:12.427Z,98005.91
2022-08-03T03:27:17.684Z,98007.19
2022-08-03T03:30:26.329Z,98002.34
2022-08-03T03:33:30.391Z,98005.94
2022-08-03T03:36:39.821Z,98006.97
2022-08-03T03:39:44.565Z,98013.34
2022-08-03T03:42:51.308Z,98019.00
2022-08-03T03:45:56.650Z,98007.19
2022-08-03T03:49:02.036Z,98021.81
2022-08-03T03:52:08.964Z,98021.03
2022-08-03T03:55:19.113Z,98017.72
2022-08-03T03:58:26.954Z,98013.88
2022-08-03T04:01:33.273Z,98020.03
2022-08-03T04:04:55.557Z,98016.97
2022-08-03T04:08:21.837Z,98028.94
2022-08-03T04:11:32.155Z,98032.56
2022-08-03T04:14:39.043Z,98035.13
2022-08-03T04:17:47.550Z,98028.75
2022-08-03T04:20:54.752Z,98033.59
2022-08-03T04:24:05.370Z,98045.09
2022-08-03T04:27:13.030Z,98052.78
2022-08-03T04:30:17.852Z,98050.47
2022-08-03T04:33:25.109Z,98055.34
2022-08-03T04:36:39.045Z,98052.53
2022-08-03T04:39:50.068Z,98060.63
2022-08-03T04:42:56.935Z,98065.94
2022-08-03T04:46:02.358Z,98054.44
2022-08-03T04:49:08.689Z,98062.06
2022-08-03T04:52:17.540Z,98059.91
2022-08-03T04:55:30.184Z,98063.81
2022-08-03T04:58:37.355Z,98061.97
2022-08-03T05:01:43.047Z,98066.69
2022-08-03T05:04:48.258Z,98065.81
2022-08-03T05:07:57.906Z,98071.13
2022-08-03T05:11:10.478Z,98082.19
2022-08-03T05:14:14.333Z,98071.31
2022-08-03T05:17:19.958Z,98071.78
2022-08-03T05:20:26.330Z,98073.09
2022-08-03T05:23:34.064Z,98074.66
2022-08-03T05:26:42.621Z,98075.84
2022-08-03T05:29:47.683Z,98075.19
2022-08-03T05:32:51.729Z,98079.97
2022-08-03T05:36:03.492Z,98080.47
2022-08-03T05:39:08.291Z,98083.06
2022-08-03T05:42:17.605Z,98073.66
2022-08-03T05:45:28.249Z,98078.56
2022-08-03T05:48:33.761Z,98085.91
2022-08-03T05:51:38.214Z,98081.34
2022-08-03T05:54:57.295Z,98076.94
2022-08-03T05:58:04.706Z,98081.50
2022-08-03T06:01:09.643Z,98075.25
2022-08-03T06:04:14.016Z,98080.84
2022-08-03T06:07:19.149Z,98082.63
2022-08-03T06:10:35.456Z,98083.97
2022-08-03T06:13:44.521Z,98087.78
2022-08-03T06:16:49.754Z,98087.53
2022-08-03T06:19:54.900Z,98086.44
2022-08-03T06:23:00.336Z,98082.38
2022-08-03T06:26:06.499Z,98090.00
2022-08-03T06:29:12.155Z,98095.44
2022-08-03T06:32:17.444Z,98091.47
2022-08-03T06:35:21.741Z,98101.06
2022-08-03T06:38:26.056Z,98098.53
2022-08-03T06:41:37.637Z,98103.16
2022-08-03T06:44:49.189Z,98108.69
2022-08-03T06:48:02.965Z,98103.38
2022-08-03T06:51:07.594Z,98104.84
2022-08-03T06:54:12.532Z,98108.56
2022-08-03T06:57:19.215Z,98113.19
2022-08-03T07:00:25.605Z,98103.72
2022-08-03T07:03:30.850Z,98110.13
2022-08-03T07:06:35.674Z,98113.19
2022-08-03T07:09:39.628Z,98109.16
2022-08-03T07:12:56.233Z,98115.31
2022-08-03T07:16:05.299Z,98104.66
2022-08-03T07:19:09.706Z,98117.94
2022-08-03T07:22:15.343Z,98118.22
2022-08-03T07:25:20.130Z,98118.66
2022-08-03T07:28:24.858Z,98107.00
2022-08-03T07:31:34.237Z,98109.44
2022-08-03T07:34:39.306Z,98105.41
2022-08-03T07:37:43.331Z,98107.84
2022-08-03T07:40:59.991Z,98116.47
2022-08-03T07:44:04.075Z,98117.50
2022-08-03T07:47:10.898Z,98114.69
2022-08-03T07:50:26.747Z,98107.22
2022-08-03T07:53:31.462Z,98108.28
2022-08-03T07:56:42.443Z,98108.38
2022-08-03T08:00:01.771Z,98112.53
2022-08-03T08:03:17.341Z,98116.94
2022-08-03T08:06:41.466Z,98116.13
2022-08-03T08:09:45.481Z,98123.91
2022-08-03T08:12:49.706Z,98118.06
2022-08-03T08:15:53.896Z,98117.19
2022-08-03T08:19:02.398Z,98124.69
2022-08-03T08:22:07.268Z,98125.41
2022-08-03T08:25:12.875Z,98120.69
2022-08-03T08:28:32.731Z,98106.25
2022-08-03T08:31:37.989Z,98115.84
2022-08-03T08:34:44.009Z,98111.25
2022-08-03T08:37:51.165Z,98110.72
2022-08-03T08:40:59.655Z,98107.28
2022-08-03T08:44:05.993Z,98101.50
2022-08-03T08:47:10.754Z,98096.97
2022-08-03T08:50:27.069Z,98092.00
2022-08-03T08:53:37.675Z,98099.59
2022-08-03T08:56:42.697Z,98096.84
2022-08-03T08:59:49.712Z,98088.47
2022-08-03T09:02:59.249Z,98087.69
2022-08-03T09:06:13.396Z,98080.81
2022-08-03T09:10:00.313Z,98088.13
2022-08-03T09:12:45.985Z,98079.28
2022-08-03T09:16:10.450Z,98080.53
2022-08-03T09:19:18.943Z,98070.75
2022-08-03T09:22:31.019Z,98080.53
2022-08-03T09:25:52.166Z,98078.84
2022-08-03T09:29:05.611Z,98068.34
2022-08-03T09:32:16.033Z,98064.28
2022-08-03T09:35:53.621Z,98057.94
2022-08-03T09:39:07.986Z,98058.22
2022-08-03T09:42:18.343Z,98066.16
2022-08-03T09:45:28.171Z,98054.50
2022-08-03T09:52:37.967Z,98052.81
2022-08-03T09:56:36.217Z,98052.19
2022-08-03T09:59:02.889Z,98044.81
2022-08-03T10:02:23.124Z,98044.41
2022-08-03T10:05:38.208Z,98042.47
2022-08-03T10:08:43.053Z,98033.31
2022-08-03T10:11:49.860Z,98038.50
2022-08-03T10:14:54.522Z,98029.50
2022-08-03T10:17:58.509Z,98027.13
2022-08-03T10:21:09.241Z,98023.22
2022-08-03T10:24:18.684Z,98019.69
2022-08-03T10:27:39.786Z,98018.94
2022-08-03T10:30:56.553Z,98017.25
2022-08-03T10:34:04.098Z,98019.91
2022-08-03T10:37:13.977Z,98008.75
2022-08-03T10:40:47.527Z,98012.31
2022-08-03T10:43:54.806Z,98007.03
2022-08-03T10:46:59.698Z,98001.91
2022-08-03T10:50:13.119Z,97998.88
2022-08-03T10:53:39.508Z,97999.97
2022-08-03T10:57:13.414Z,97999.53
2022-08-03T11:00:30.341Z,98008.06
2022-08-03T11:03:38.614Z,98003.19
2022-08-03T11:07:12.339Z,97997.25
2022-08-03T11:10:32.393Z,98000.75
2022-08-03T11:13:59.955Z,98004.00
2022-08-03T11:17:55.846Z,97988.94
2022-08-03T11:25:06.418Z,98004.22
2022-08-03T11:28:36.697Z,97994.59
2022-08-03T11:31:55.549Z,97988.25
2022-08-03T11:35:13.885Z,97977.44
2022-08-03T11:43:56.990Z,97979.75
2022-08-03T11:47:50.997Z,97977.47
2022-08-03T11:51:22.040Z,97977.69
2022-08-03T11:54:27.967Z,97968.56
2022-08-03T11:59:01.582Z,97967.72
2022-08-03T12:01:05.972Z,97978.00
2022-08-03T12:04:10.813Z,97972.91
2022-08-03T12:07:25.048Z,97961.47
2022-08-03T12:10:42.416Z,97963.94
2022-08-03T12:14:45.073Z,97956.38
2022-08-03T12:17:19.410Z,97948.94
2022-08-03T12:20:53.095Z,97949.41
2022-08-03T12:24:30.906Z,97951.59
2022-08-03T12:27:48.304Z,97952.25
2022-08-03T12:31:07.640Z,97952.94
2022-08-03T12:34:19.932Z,97944.31
2022-08-03T12:37:32.163Z,97941.63
2022-08-03T12:40:44.467Z,97937.28
2022-08-03T12:44:00.138Z,97938.22
2022-08-03T12:47:07.794Z,97932.31
2022-08-03T12:50:47.689Z,97935.06
2022-08-03T12:54:06.418Z,97931.72
2022-08-03T12:57:27.725Z,97934.75
2022-08-03T13:14:02.681Z,97922.78
2022-08-03T13:17:46.034Z,97916.56
2022-08-03T13:21:53.814Z,97915.50
2022-08-03T13:25:10.383Z,97903.72
2022-08-03T13:28:16.277Z,97916.69
2022-08-03T13:31:20.985Z,97909.00
2022-08-03T13:34:41.180Z,97912.28
2022-08-03T13:39:15.194Z,97916.59
2022-08-03T13:47:31.177Z,97898.19
2022-08-03T13:50:44.941Z,97912.22
2022-08-03T13:53:49.390Z,97908.16
2022-08-03T13:58:03.293Z,97894.22
2022-08-03T14:04:44.438Z,97899.31
2022-08-03T14:07:50.548Z,97895.06
2022-08-03T14:10:55.751Z,97885.69
2022-08-03T14:14:00.146Z,97885.84
2022-08-03T14:17:06.255Z,97889.78
2022-08-03T14:20:36.617Z,97886.91
2022-08-03T14:23:40.430Z,97882.22
2022-08-03T14:26:45.153Z,97889.63
2022-08-03T14:29:49.621Z,97891.31
2022-08-03T14:32:55.949Z,97891.16
2022-08-03T14:36:03.127Z,97885.56
2022-08-03T14:39:08.310Z,97876.59
2022-08-03T14:42:13.175Z,97873.28
2022-08-03T14:45:20.410Z,97892.84
2022-08-03T14:50:33.699Z,97882.97
2022-08-03T14:51:51.697Z,97870.41
2022-08-03T14:54:59.688Z,97880.84
2022-08-03T14:58:21.204Z,97874.19
2022-08-03T15:02:02.651Z,97867.22
2022-08-03T15:04:50.503Z,97876.63
2022-08-03T15:07:56.825Z,97863.91
2022-08-03T15:11:09.296Z,97857.72
2022-08-03T15:14:18.116Z,97862.53
2022-08-03T15:17:26.015Z,97859.97
2022-08-03T15:20:46.266Z,97853.91
2022-08-03T15:23:57.218Z,97852.84
2022-08-03T15:27:09.799Z,97846.34
2022-08-03T15:30:26.997Z,97848.16
2022-08-03T15:33:43.691Z,97846.97
2022-08-03T15:37:16.503Z,97852.81
2022-08-03T15:40:46.451Z,97842.56
2022-08-03T15:43:53.469Z,97845.28
2022-08-03T15:46:57.867Z,97841.06
2022-08-03T15:50:07.830Z,97839.41
2022-08-03T15:53:14.421Z,97839.06
2022-08-03T15:56:21.956Z,97836.97
2022-08-03T15:59:27.761Z,97841.97
2022-08-03T16:02:32.704Z,97843.16
2022-08-03T16:05:37.650Z,97830.91
2022-08-03T16:08:46.231Z,97836.03
2022-08-03T16:12:04.826Z,97837.41
2022-08-03T16:15:54.582Z,97836.94
2022-08-03T16:19:10.785Z,97843.72
2022-08-03T16:22:19.537Z,97840.00
2022-08-03T16:25:23.563Z,97845.84
2022-08-03T16:28:34.191Z,97857.56
2022-08-03T16:31:39.655Z,97845.81
2022-08-03T16:34:55.456Z,97849.13
2022-08-03T16:38:23.193Z,97851.44
2022-08-03T16:41:54.455Z,97853.19
2022-08-03T16:45:26.913Z,97846.63
2022-08-03T16:56:09.536Z,97850.53
2022-08-03T16:59:42.299Z,97862.78
2022-08-03T17:03:30.977Z,97856.44
2022-08-03T17:06:57.767Z,97863.41
2022-08-03T17:10:08.542Z,97860.97
2022-08-03T17:14:21.928Z,97871.06
2022-08-03T17:18:31.849Z,97861.97
2022-08-03T17:26:02.339Z,97869.34
2022-08-03T17:29:13.058Z,97875.09
2022-08-03T17:32:21.251Z,97874.75
2022-08-03T17:35:34.691Z,97873.69
2022-08-03T17:38:43.880Z,97883.94
2022-08-03T17:41:54.022Z,97877.25
2022-08-03T17:45:02.224Z,97877.03
2022-08-03T17:48:18.582Z,97882.19
2022-08-03T17:51:58.156Z,97891.84
2022-08-03T17:55:57.042Z,97886.88
2022-08-03T17:58:55.156Z,97892.94
2022-08-03T18:02:30.686Z,97894.53
2022-08-03T18:06:11.683Z,97903.28
2022-08-03T18:10:04.807Z,97901.69
2022-08-03T18:12:32.390Z,97907.00
2022-08-03T18:15:48.721Z,97912.19
2022-08-03T18:23:36.588Z,97908.25
2022-08-03T18:26:51.970Z,97916.94
2022-08-03T18:30:08.653Z,97918.22
2022-08-03T18:34:18.665Z,97921.47
2022-08-03T18:37:25.349Z,97924.31
2022-08-03T18:40:32.315Z,97920.94
2022-08-03T18:43:46.656Z,97930.13
2022-08-03T18:47:16.286Z,97933.56
2022-08-03T18:50:31.184Z,97934.13
2022-08-03T18:54:03.049Z,97944.78
2022-08-03T18:57:15.307Z,97946.13
2022-08-03T19:00:24.231Z,97952.00
2022-08-03T19:04:00.038Z,97950.47
2022-08-03T19:07:44.124Z,97954.66
2022-08-03T19:12:30.984Z,97974.69
2022-08-03T19:16:01.350Z,97964.47
2022-08-03T19:19:16.637Z,97966.44
2022-08-03T19:22:27.445Z,97972.72
2022-08-03T19:30:39.954Z,97976.75
2022-08-03T19:33:57.258Z,97978.19
2022-08-03T19:37:14.856Z,97976.63
2022-08-03T19:40:25.990Z,97977.38
2022-08-03T19:43:53.391Z,97989.22
2022-08-03T19:47:03.077Z,97988.56
2022-08-03T19:50:13.960Z,97978.81
2022-08-03T19:53:41.437Z,97990.06
2022-08-03T20:07:22.141Z,98005.59
2022-08-03T20:11:06.631Z,97985.16
2022-08-03T20:14:20.807Z,97985.78
2022-08-03T20:17:56.220Z,97980.09
2022-08-03T20:21:00.564Z,97997.00
2022-08-03T20:24:23.335Z,97993.03
2022-08-03T20:28:07.991Z,97988.81
2022-08-03T20:31:02.116Z,97993.63
2022-08-03T20:34:09.147Z,97988.13
2022-08-03T20:37:25.617Z,97995.94
2022-08-03T20:40:31.762Z,97991.38
2022-08-03T20:43:36.167Z,97993.34
2022-08-03T20:46:56.358Z,97994.47
2022-08-03T20:50:07.756Z,97996.44
2022-08-03T20:53:15.271Z,97997.41
2022-08-03T20:57:27.828Z,98005.91
2022-08-03T21:05:21.159Z,98004.59
2022-08-03T21:17:25.124Z,98013.00
2022-08-03T21:20:36.247Z,98013.91
2022-08-03T21:24:10.235Z,98017.84
2022-08-03T21:27:14.171Z,98015.97
2022-08-03T21:30:20.568Z,98020.78
2022-08-03T21:33:29.295Z,98018.81
2022-08-03T21:36:39.506Z,98019.34
2022-08-03T21:39:50.983Z,98025.75
2022-08-03T21:43:07.910Z,98016.66
2022-08-03T21:46:20.852Z,98029.72
2022-08-03T21:50:04.710Z,98026.41
2022-08-03T21:52:53.139Z,98034.81
2022-08-03T21:55:59.644Z,98033.28
2022-08-03T21:59:07.124Z,98033.91
2022-08-03T22:02:24.271Z,98042.28
2022-08-03T22:05:43.505Z,98036.06
2022-08-03T22:08:49.190Z,98029.25
2022-08-03T22:11:54.246Z,98044.66
2022-08-03T22:15:02.014Z,98037.84
2022-08-03T22:18:09.341Z,98029.94
2022-08-03T22:21:15.223Z,98043.88
2022-08-03T22:24:23.814Z,98037.09
2022-08-03T22:27:34.274Z,98043.28
2022-08-03T22:30:39.057Z,98038.97
2022-08-03T22:33:45.963Z,98037.34
2022-08-03T22:36:49.929Z,98047.16
2022-08-03T22:39:54.754Z,98042.41
2022-08-03T22:42:58.748Z,98045.00
2022-08-03T22:46:08.931Z,98040.69
2022-08-03T22:49:19.630Z,98038.09
2022-08-03T22:52:24.765Z,98034.84
2022-08-03T22:55:28.653Z,98029.53
2022-08-03T22:58:33.185Z,98037.38
2022-08-03T23:01:39.450Z,98041.50
2022-08-03T23:04:46.609Z,98036.81
2022-08-03T23:07:52.016Z,98038.44
2022-08-03T23:11:04.814Z,98040.97
2022-08-03T23:14:15.246Z,98039.78
2022-08-03T23:17:21.671Z,98038.63
2022-08-03T23:20:29.494Z,98032.91
2022-08-03T23:23:44.633Z,98036.31
2022-08-03T23:26:53.135Z,98040.84
2022-08-03T23:30:00.549Z,98038.09
2022-08-03T23:33:05.557Z,98032.91
2022-08-03T23:36:30.888Z,98027.25
2022-08-03T23:39:36.829Z,98035.31
2022-08-03T23:42:48.687Z,98034.91
2022-08-03T23:46:19.877Z,98031.31
2022-08-03T23:49:24.033Z,98025.34
2022-08-03T23:52:35.995Z,98033.06
2022-08-03T23:56:04.902Z,98040.63
2022-08-03T23:59:52.820Z,98032.78
